Macon, Mississippi
Current Conditions -  °F | °C
As of 6:45 AM on Thursday 18 Dec 2014 (Local Time) from KGTR Reporting Station
Overcast Overcast  
Wind Chill: 36°   Ceiling: 7500
Heat Index: 41°   Visibility: 10mi
Dew Point: 34°   Wind: 7mph
Humidity: 76%   Direction: 80°E
Pressure: 30.2"   Gusts: NA
Location:  33.11°N, 88.56°W
Report Text: KGTR 181245Z 08006KT 10SM SCT060 BKN075 OVC080 05/01 A3020
Loading
Personal Weather Stations






























Interactive Weather Map New forecast layout! Learn more

10-Day Weather Forecast

Advertisements
Track Severe Weather on mobile